Cumberland, Rhode Island
Current Conditions -  °F | °C
As of 4:55 PM on Thursday 23 Oct 2014 (Local Time) from KSFZ Reporting Station
Overcast Overcast  
Wind Chill: 52°   Ceiling: 600
Heat Index: 52°   Visibility: 8mi
Dew Point: 45°   Wind: 17mph
Humidity: 76%   Direction: 10°N
Pressure: 29.59"   Gusts: 24mph
Location:  41.95°N, 71.42°W
Report Text: KSFZ 232055Z 01015G21KT 8SM OVC006 11/07 A2959 RMK AO1 P0012 60012 52003
Loading
Personal Weather Stations






























Interactive Weather Map
Tropical Storm Tracking
New forecast layout! Learn more

10-Day Weather Forecast

Advertisements
Track Severe Weather on mobile